Time;durP1;ratioP1;P1;durP2;ratioP2;P2;SDS_P1;SDS_P2;PMS_P1;PMS_P2;Temp;Humidity;BMP_temperature;BMP_pressure;BME280_temperature;BME280_humidity;BME280_pressure;Samples;Min_cycle;Max_cycle;Signal;HPM_P1;HPM_P2
2022/06/25 00:00:56;;;;;;;5.90;2.10;;;16.90;99.90;;;;;;7342591;32;20506;-60
2022/06/25 00:09:18;;;;;;;4.43;2.10;;;16.90;99.90;;;;;;7339497;32;20110;-60
2022/06/25 00:13:20;;;;;;;4.78;2.10;;;16.80;99.90;;;;;;7338132;32;20580;-59
2022/06/25 00:17:22;;;;;;;5.93;2.40;;;16.80;99.90;;;;;;7340292;32;20111;-61
2022/06/25 00:21:23;;;;;;;5.30;2.67;;;16.80;99.90;;;;;;7342930;32;20121;-60
2022/06/25 00:25:25;;;;;;;6.47;2.37;;;16.80;99.90;;;;;;7333170;32;20107;-60
2022/06/25 00:29:27;;;;;;;2.50;2.20;;;16.70;99.90;;;;;;7332200;32;20099;-60
2022/06/25 00:33:28;;;;;;;6.82;2.30;;;16.70;99.90;;;;;;7336820;32;20640;-60
2022/06/25 00:37:30;;;;;;;4.55;2.28;;;16.60;99.90;;;;;;7338868;32;20612;-59
2022/06/25 00:41:33;;;;;;;3.85;2.17;;;16.60;99.90;;;;;;7336403;32;20273;-60
2022/06/25 00:45:34;;;;;;;6.45;2.22;;;16.50;99.90;;;;;;7341274;32;20196;-61
2022/06/25 00:49:36;;;;;;;5.25;2.20;;;16.50;99.90;;;;;;7337717;32;20709;-59
2022/06/25 00:53:44;;;;;;;4.60;2.10;;;16.50;99.90;;;;;;7341569;32;20117;-61
2022/06/25 00:57:50;;;;;;;3.03;1.90;;;16.50;99.90;;;;;;7340995;32;20129;-60
2022/06/25 01:01:52;;;;;;;8.52;2.87;;;16.50;99.90;;;;;;7338996;32;20471;-60
2022/06/25 01:05:54;;;;;;;3.70;2.20;;;16.50;99.90;;;;;;7341713;32;20253;-60
2022/06/25 01:09:56;;;;;;;5.07;2.58;;;16.50;99.90;;;;;;7338171;32;20155;-63
2022/06/25 01:13:58;;;;;;;5.82;2.62;;;16.50;99.90;;;;;;7343301;32;20133;-58
2022/06/25 01:18:00;;;;;;;5.20;2.15;;;16.50;99.90;;;;;;7337230;32;20646;-59
2022/06/25 01:22:06;;;;;;;5.03;2.78;;;16.50;99.90;;;;;;7345369;32;20099;-60
2022/06/25 01:26:07;;;;;;;5.50;2.55;;;16.50;99.90;;;;;;7350381;32;20184;-59
2022/06/25 01:30:11;;;;;;;6.10;2.75;;;16.40;99.90;;;;;;7346980;32;20570;-59
2022/06/25 01:34:13;;;;;;;6.97;2.60;;;16.40;99.90;;;;;;7340184;32;20583;-59
2022/06/25 01:38:15;;;;;;;8.75;3.65;;;16.40;99.90;;;;;;7343502;32;20451;-60
2022/06/25 01:46:37;;;;;;;4.93;3.12;;;16.30;99.90;;;;;;7346549;32;20122;-58
2022/06/25 01:50:38;;;;;;;6.15;3.75;;;16.30;99.90;;;;;;7339343;32;20162;-58
2022/06/25 01:54:40;;;;;;;7.85;3.15;;;16.20;99.90;;;;;;7348208;32;20131;-59
2022/06/25 01:58:42;;;;;;;5.75;3.30;;;16.20;99.90;;;;;;7339357;32;20119;-59
2022/06/25 02:02:44;;;;;;;8.63;3.47;;;16.20;99.90;;;;;;7341183;32;20276;-60
2022/06/25 02:06:46;;;;;;;10.48;3.03;;;16.20;99.90;;;;;;7341894;32;20612;-61
2022/06/25 02:10:49;;;;;;;6.07;3.20;;;16.20;99.90;;;;;;7341832;32;20138;-61
2022/06/25 02:14:50;;;;;;;3.62;3.12;;;16.20;99.90;;;;;;7351212;32;20451;-60
2022/06/25 02:18:52;;;;;;;6.07;3.65;;;16.20;99.90;;;;;;7340401;32;20524;-60
2022/06/25 02:22:54;;;;;;;7.72;3.50;;;16.10;99.90;;;;;;7346512;32;20115;-60
2022/06/25 02:26:56;;;;;;;7.07;3.45;;;16.10;99.90;;;;;;7341396;32;20143;-59
2022/06/25 02:30:57;;;;;;;6.45;3.40;;;16.10;99.90;;;;;;7345127;32;20640;-60
2022/06/25 02:35:00;;;;;;;7.97;3.92;;;16.10;99.90;;;;;;7340650;32;20207;-60
2022/06/25 02:39:01;;;;;;;6.47;3.15;;;16.20;99.90;;;;;;7344767;32;20129;-60
2022/06/25 02:43:05;;;;;;;6.95;3.42;;;16.10;99.90;;;;;;7343703;32;20109;-60
2022/06/25 02:47:06;;;;;;;7.12;3.80;;;16.10;99.90;;;;;;7343236;32;20115;-60
2022/06/25 02:51:08;;;;;;;7.60;4.05;;;16.10;99.90;;;;;;7343454;32;20578;-60
2022/06/25 02:55:10;;;;;;;5.28;3.62;;;16.10;99.90;;;;;;7344160;32;20198;-60
2022/06/25 02:59:12;;;;;;;4.40;3.60;;;16.10;99.90;;;;;;7342357;32;20119;-60
2022/06/25 03:03:14;;;;;;;12.80;3.87;;;16.00;99.90;;;;;;7339271;32;20380;-61
2022/06/25 03:07:16;;;;;;;8.18;4.15;;;16.00;99.90;;;;;;7345826;32;20161;-61
2022/06/25 03:11:18;;;;;;;8.05;3.45;;;16.00;99.90;;;;;;7345302;32;20126;-59
2022/06/25 03:15:20;;;;;;;4.45;3.60;;;16.00;99.90;;;;;;7342649;32;20237;-60
2022/06/25 03:19:22;;;;;;;5.95;3.83;;;16.10;99.90;;;;;;7346988;32;20207;-60
2022/06/25 03:23:24;;;;;;;10.07;3.62;;;16.00;99.90;;;;;;7335034;32;20786;-59
2022/06/25 03:27:25;;;;;;;9.13;3.37;;;16.00;99.90;;;;;;7345229;32;20575;-59
2022/06/25 03:31:27;;;;;;;7.95;3.58;;;16.00;99.90;;;;;;7337833;32;20186;-59
2022/06/25 03:35:29;;;;;;;6.35;3.50;;;15.90;99.90;;;;;;7340593;32;20615;-58
2022/06/25 03:39:31;;;;;;;5.68;3.40;;;15.90;99.90;;;;;;7337630;32;20156;-58
2022/06/25 03:43:33;;;;;;;5.22;3.53;;;15.90;99.90;;;;;;7338396;32;20230;-60
2022/06/25 03:47:35;;;;;;;5.55;3.20;;;15.90;99.90;;;;;;7334303;32;20234;-59
2022/06/25 03:51:37;;;;;;;4.10;3.22;;;15.90;99.90;;;;;;7342637;32;20570;-59
2022/06/25 03:55:38;;;;;;;4.22;3.20;;;15.90;99.90;;;;;;7339148;32;20135;-58
2022/06/25 03:59:54;;;;;;;4.55;3.15;;;16.00;99.90;;;;;;7342131;32;20222;-59
2022/06/25 04:03:56;;;;;;;5.07;3.37;;;15.90;99.90;;;;;;7337388;32;20103;-58
2022/06/25 04:07:57;;;;;;;6.35;3.58;;;16.00;99.90;;;;;;7336383;32;20526;-59
2022/06/25 04:11:59;;;;;;;9.07;3.85;;;16.00;99.90;;;;;;7337005;32;20220;-59
2022/06/25 04:16:01;;;;;;;7.00;3.60;;;16.10;99.90;;;;;;7340901;32;20248;-60
2022/06/25 04:20:03;;;;;;;5.75;3.10;;;16.10;99.90;;;;;;7335378;32;21261;-61
2022/06/25 04:24:05;;;;;;;5.55;3.08;;;16.20;99.90;;;;;;7338786;32;20272;-59
2022/06/25 04:32:28;;;;;;;5.28;2.75;;;16.40;99.90;;;;;;7334741;32;20496;-59
2022/06/25 04:36:30;;;;;;;5.32;2.67;;;16.60;99.90;;;;;;7343904;32;20205;-62
2022/06/25 04:40:31;;;;;;;6.75;2.70;;;16.80;99.90;;;;;;7339122;32;20525;-59
2022/06/25 04:44:33;;;;;;;6.82;2.42;;;17.00;99.90;;;;;;7335359;32;20133;-59
2022/06/25 04:48:35;;;;;;;6.93;2.65;;;17.20;99.90;;;;;;7346201;32;20198;-58
2022/06/25 04:52:36;;;;;;;7.28;1.90;;;17.50;99.90;;;;;;7337567;32;20162;-58
2022/06/25 04:56:39;;;;;;;5.47;2.10;;;17.70;99.90;;;;;;7338336;32;20154;-59
2022/06/25 05:00:40;;;;;;;7.75;2.40;;;18.00;99.90;;;;;;7345824;32;20545;-59
2022/06/25 05:04:42;;;;;;;6.25;1.90;;;18.30;99.90;;;;;;7344539;32;20119;-59
2022/06/25 05:08:44;;;;;;;5.30;1.67;;;18.70;99.90;;;;;;7340171;32;20130;-61
2022/06/25 05:17:06;;;;;;;4.00;1.77;;;19.10;99.90;;;;;;7342422;32;20106;-64
2022/06/25 05:21:07;;;;;;;3.67;1.95;;;18.90;99.90;;;;;;7342069;32;20126;-64
2022/06/25 05:25:09;;;;;;;4.45;1.77;;;18.80;99.90;;;;;;7341736;32;20198;-64
2022/06/25 05:29:11;;;;;;;4.32;2.03;;;18.70;99.90;;;;;;7341297;32;20206;-65
2022/06/25 05:33:13;;;;;;;11.98;2.10;;;18.70;99.90;;;;;;7345379;32;20476;-64
2022/06/25 05:37:15;;;;;;;6.50;2.50;;;18.70;99.90;;;;;;7338776;32;20130;-67
2022/06/25 05:41:17;;;;;;;5.15;1.87;;;18.70;99.90;;;;;;7344677;32;20116;-67
2022/06/25 05:45:18;;;;;;;4.43;1.90;;;18.70;99.90;;;;;;7342069;32;20141;-65
2022/06/25 05:49:20;;;;;;;5.65;2.45;;;18.70;99.90;;;;;;7343018;32;20500;-63
2022/06/25 05:53:22;;;;;;;2.97;2.40;;;18.80;99.90;;;;;;7345141;32;20185;-67
2022/06/25 05:57:24;;;;;;;4.95;1.80;;;18.90;99.90;;;;;;7340955;32;20217;-63
2022/06/25 06:01:26;;;;;;;5.72;1.70;;;19.10;99.90;;;;;;7345464;32;20637;-63
2022/06/25 06:05:27;;;;;;;2.72;1.70;;;19.20;99.90;;;;;;7343926;32;20341;-62
2022/06/25 06:09:29;;;;;;;2.35;1.40;;;19.30;99.90;;;;;;7344763;32;20235;-63
2022/06/25 06:13:31;;;;;;;4.25;2.30;;;19.40;99.90;;;;;;7346779;32;20127;-64
2022/06/25 06:17:32;;;;;;;5.20;2.17;;;19.50;99.90;;;;;;7346014;32;20649;-66
2022/06/25 06:21:35;;;;;;;5.57;2.03;;;19.70;99.90;;;;;;7336956;32;20198;-64
2022/06/25 06:25:37;;;;;;;4.95;1.75;;;20.00;99.90;;;;;;7343269;32;20530;-65
2022/06/25 06:29:39;;;;;;;5.15;2.08;;;19.90;99.90;;;;;;7341973;32;20248;-66
2022/06/25 06:33:41;;;;;;;6.55;1.67;;;20.10;99.90;;;;;;7342151;32;20130;-69
2022/06/25 06:37:43;;;;;;;4.95;1.80;;;20.20;99.90;;;;;;7344570;32;20135;-67
2022/06/25 06:41:44;;;;;;;4.87;1.90;;;20.30;99.90;;;;;;7345149;32;20508;-69
2022/06/25 06:45:46;;;;;;;4.10;1.90;;;20.40;99.90;;;;;;7342963;32;20230;-67
2022/06/25 06:49:48;;;;;;;7.62;2.00;;;20.60;99.90;;;;;;7349209;32;20111;-66
2022/06/25 06:53:49;;;;;;;7.10;1.80;;;20.60;99.90;;;;;;7350430;32;20290;-65
2022/06/25 06:57:51;;;;;;;3.42;1.33;;;20.70;99.90;;;;;;7342517;32;20562;-67
2022/06/25 07:01:53;;;;;;;6.50;1.70;;;20.70;99.90;;;;;;7341751;32;20128;-69
2022/06/25 07:05:55;;;;;;;6.80;2.12;;;20.70;99.90;;;;;;7338149;32;20643;-64
2022/06/25 07:09:56;;;;;;;7.25;1.52;;;20.90;99.90;;;;;;7340671;32;20196;-67
2022/06/25 07:14:04;;;;;;;6.22;1.55;;;20.90;99.90;;;;;;7347479;32;20546;-65
2022/06/25 07:18:06;;;;;;;;;;;21.00;99.90;;;;;;7344240;32;20164;-64
2022/06/25 07:22:07;;;;;;;5.47;1.48;;;21.10;99.90;;;;;;7340100;32;20025;-74
2022/06/25 07:26:09;;;;;;;5.10;1.25;;;21.20;99.90;;;;;;7337729;32;20790;-65
2022/06/25 07:30:12;;;;;;;7.43;1.65;;;21.10;99.90;;;;;;7340481;32;20826;-61
2022/06/25 07:34:13;;;;;;;5.62;1.50;;;21.10;99.90;;;;;;7341372;32;20165;-59
2022/06/25 07:38:15;;;;;;;5.97;1.60;;;21.10;99.90;;;;;;7337011;32;20149;-59
2022/06/25 07:42:17;;;;;;;6.40;1.55;;;21.20;99.90;;;;;;7339500;32;20111;-59
2022/06/25 07:46:19;;;;;;;6.57;1.62;;;21.30;99.90;;;;;;7332897;32;20114;-58
2022/06/25 07:54:41;;;;;;;11.57;1.45;;;21.60;99.90;;;;;;7340449;32;20172;-58
2022/06/25 07:58:43;;;;;;;5.05;1.10;;;21.70;99.90;;;;;;7333777;32;20119;-59
2022/06/25 08:02:45;;;;;;;4.57;1.20;;;21.70;99.90;;;;;;7338229;32;20111;-65
2022/06/25 08:06:47;;;;;;;3.12;1.27;;;21.90;99.90;;;;;;7341074;32;20099;-60
2022/06/25 08:10:49;;;;;;;3.03;1.15;;;22.10;99.90;;;;;;7343428;32;20234;-58
2022/06/25 08:14:55;;;;;;;5.97;1.37;;;22.10;99.90;;;;;;7342369;32;20863;-58
2022/06/25 08:18:56;;;;;;;5.37;1.30;;;22.30;99.90;;;;;;7338353;32;20158;-59
2022/06/25 08:22:58;;;;;;;7.35;1.45;;;22.30;99.90;;;;;;7342178;32;20130;-66
2022/06/25 08:27:00;;;;;;;7.43;1.70;;;22.50;99.90;;;;;;7340411;32;20194;-58
2022/06/25 08:31:02;;;;;;;9.90;1.35;;;22.40;99.90;;;;;;7339009;32;20111;-59
2022/06/25 08:35:05;;;;;;;6.25;2.20;;;22.40;99.90;;;;;;7343069;32;20111;-64
2022/06/25 08:39:06;;;;;;;4.18;1.55;;;22.70;99.90;;;;;;7340224;32;20166;-62
2022/06/25 08:43:08;;;;;;;3.70;1.10;;;22.90;99.90;;;;;;7338873;32;20114;-60
2022/06/25 08:47:11;;;;;;;6.62;1.30;;;23.30;99.90;;;;;;7335411;32;20203;-61
2022/06/25 08:51:14;;;;;;;5.22;1.35;;;23.50;99.90;;;;;;7344378;32;20108;-67
2022/06/25 08:55:31;;;;;;;7.85;1.58;;;23.20;99.90;;;;;;7336726;32;20131;-62
2022/06/25 08:59:34;;;;;;;5.27;1.30;;;22.60;99.90;;;;;;7335035;32;20254;-63
2022/06/25 09:03:36;;;;;;;6.57;1.30;;;22.40;99.90;;;;;;7338702;32;20226;-67
2022/06/25 09:07:37;;;;;;;4.00;1.73;;;22.20;99.90;;;;;;7337797;32;20103;-59
2022/06/25 09:11:57;;;;;;;5.93;1.70;;;22.40;99.90;;;;;;7347283;32;20539;-60
2022/06/25 09:15:59;;;;;;;7.60;1.87;;;23.00;99.90;;;;;;7333694;32;20202;-66
2022/06/25 09:20:03;;;;;;;5.62;1.40;;;23.00;99.90;;;;;;7339087;32;20594;-64
2022/06/25 09:24:05;;;;;;;6.80;1.42;;;23.10;99.90;;;;;;7345359;32;20194;-63
2022/06/25 09:28:07;;;;;;;4.78;1.23;;;23.40;99.90;;;;;;7336252;32;20175;-64
2022/06/25 09:32:10;;;;;;;4.80;0.82;;;24.40;99.90;;;;;;7339311;32;20511;-63
2022/06/25 09:36:12;;;;;;;2.03;0.90;;;25.00;99.90;;;;;;7342164;32;20165;-66
2022/06/25 09:40:16;;;;;;;7.60;1.10;;;25.30;99.90;;;;;;7341664;32;20651;-64
2022/06/25 09:44:18;;;;;;;7.75;1.30;;;25.30;99.90;;;;;;7344232;32;20119;-66
2022/06/25 09:48:26;;;;;;;2.95;1.60;;;24.60;99.90;;;;;;7337304;32;20298;-62
2022/06/25 09:52:27;;;;;;;4.28;1.30;;;24.10;99.90;;;;;;7343480;32;20133;-62
2022/06/25 09:56:32;;;;;;;5.60;1.23;;;23.70;99.90;;;;;;7343496;32;20743;-66
2022/06/25 10:00:34;;;;;;;3.62;1.30;;;23.60;99.90;;;;;;7345239;32;20121;-67
2022/06/25 10:04:36;;;;;;;3.12;0.88;;;23.60;99.90;;;;;;7341628;32;20103;-68
2022/06/25 10:08:39;;;;;;;2.87;1.10;;;24.10;99.90;;;;;;7343243;32;20111;-67
2022/06/25 10:12:41;;;;;;;2.72;1.15;;;24.10;99.90;;;;;;7345231;32;20206;-68
2022/06/25 10:16:43;;;;;;;4.78;1.25;;;24.30;99.90;;;;;;7341373;32;20464;-75
2022/06/25 10:20:45;;;;;;;3.62;1.25;;;24.50;99.90;;;;;;7345970;32;20133;-67
2022/06/25 10:24:47;;;;;;;4.70;1.10;;;24.30;99.90;;;;;;7342535;32;20134;-60
2022/06/25 10:28:49;;;;;;;4.37;1.00;;;24.40;99.90;;;;;;7348701;32;20103;-60
2022/06/25 10:32:50;;;;;;;4.55;1.15;;;24.20;99.90;;;;;;7343907;32;20272;-59
2022/06/25 10:36:52;;;;;;;4.57;0.90;;;23.90;99.90;;;;;;7345145;32;20115;-60
2022/06/25 10:40:55;;;;;;;2.08;1.00;;;23.80;99.90;;;;;;7345730;32;20219;-59
2022/06/25 10:45:15;;;;;;;4.15;0.88;;;23.80;99.90;;;;;;7341495;32;20149;-65
2022/06/25 10:49:22;;;;;;;4.15;0.98;;;23.80;99.90;;;;;;7344397;32;20126;-59
2022/06/25 10:53:24;;;;;;;;;;;23.80;99.90;;;;;;7341679;32;20167;-59
2022/06/25 10:57:39;;;;;;;4.15;0.90;;;23.90;99.90;;;;;;7337342;32;20011;-65
2022/06/25 11:01:55;;;;;;;4.80;0.90;;;23.80;99.90;;;;;;7344686;32;20545;-59
2022/06/25 11:05:58;;;;;;;2.37;0.73;;;23.80;99.90;;;;;;7343219;32;20232;-60
2022/06/25 11:10:02;;;;;;;4.07;0.90;;;23.70;99.90;;;;;;7341843;32;20867;-60
2022/06/25 11:14:16;;;;;;;5.37;1.12;;;23.80;99.90;;;;;;7344972;32;20125;-59
2022/06/25 11:18:18;;;;;;;5.37;1.20;;;23.60;99.90;;;;;;7342298;32;20107;-59
2022/06/25 11:22:20;;;;;;;4.40;1.05;;;23.80;99.90;;;;;;7338934;32;20201;-60
2022/06/25 11:30:47;;;;;;;3.85;1.25;;;24.50;99.90;;;;;;7344691;32;20265;-66
2022/06/25 11:35:02;;;;;;;2.33;0.68;;;24.60;99.90;;;;;;7350883;32;20143;-65
2022/06/25 11:39:04;;;;;;;4.32;1.05;;;24.60;99.90;;;;;;7340878;32;20107;-71
2022/06/25 11:43:09;;;;;;;6.10;1.33;;;24.70;99.90;;;;;;7347092;32;20119;-64
2022/06/25 11:47:18;;;;;;;4.90;1.40;;;24.70;99.90;;;;;;7339616;32;20214;-65
2022/06/25 11:51:24;;;;;;;5.87;1.27;;;24.30;99.90;;;;;;7333845;32;20256;-71
2022/06/25 11:55:26;;;;;;;3.53;1.48;;;24.20;99.90;;;;;;7343883;32;20137;-63
2022/06/25 11:59:31;;;;;;;4.97;1.40;;;24.20;99.90;;;;;;7338834;32;20126;-62
2022/06/25 12:03:33;;;;;;;2.03;1.15;;;24.00;99.90;;;;;;7337645;32;20213;-67
2022/06/25 12:07:35;;;;;;;4.32;1.20;;;23.90;99.90;;;;;;7343341;32;20135;-62
2022/06/25 12:11:37;;;;;;;5.07;1.27;;;23.90;99.90;;;;;;7343178;32;20212;-67
2022/06/25 12:15:39;;;;;;;4.57;1.23;;;24.10;99.90;;;;;;7338760;32;20157;-63
2022/06/25 12:19:45;;;;;;;3.58;1.00;;;24.30;99.90;;;;;;7345245;32;20338;-62
2022/06/25 12:23:50;;;;;;;3.13;1.27;;;24.40;99.90;;;;;;7337799;32;20505;-63
2022/06/25 12:27:52;;;;;;;4.82;1.17;;;24.70;99.90;;;;;;7340997;32;20637;-62
2022/06/25 12:32:01;;;;;;;2.87;1.10;;;24.80;99.90;;;;;;7342850;32;20134;-67
2022/06/25 12:36:17;;;;;;;5.93;2.53;;;25.00;99.90;;;;;;7340748;32;20199;-65
2022/06/25 12:40:23;;;;;;;111.35;81.15;;;25.30;99.90;;;;;;7334587;32;20126;-66
2022/06/25 12:44:37;;;;;;;1135.00;838.10;;;25.80;99.90;;;;;;7340535;32;20145;-73
2022/06/25 12:48:38;;;;;;;18.15;13.35;;;26.30;99.90;;;;;;7342214;32;20126;-66
2022/06/25 12:52:41;;;;;;;4.80;1.65;;;26.10;99.90;;;;;;7341454;32;20216;-66
2022/06/25 12:56:43;;;;;;;5.10;1.65;;;25.50;99.90;;;;;;7338380;32;20142;-72
2022/06/25 13:00:45;;;;;;;3.97;1.30;;;25.30;99.90;;;;;;7342780;32;20158;-65
2022/06/25 13:04:49;;;;;;;4.03;1.42;;;24.80;99.90;;;;;;7340005;32;20656;-68
2022/06/25 13:08:51;;;;;;;3.55;1.15;;;24.60;99.90;;;;;;7348201;32;20229;-67
2022/06/25 13:12:53;;;;;;;2.80;1.10;;;24.30;99.90;;;;;;7341024;32;20609;-67
2022/06/25 13:16:57;;;;;;;3.42;1.23;;;24.40;99.90;;;;;;7351015;32;20814;-65
2022/06/25 13:21:00;;;;;;;5.22;1.35;;;24.50;99.90;;;;;;7342471;32;20130;-63
2022/06/25 13:25:02;;;;;;;3.53;1.50;;;24.60;99.90;;;;;;7342245;32;20645;-62
2022/06/25 13:29:04;;;;;;;4.72;1.23;;;24.50;99.90;;;;;;7340274;32;20190;-64
2022/06/25 13:33:05;;;;;;;5.35;1.10;;;24.40;99.90;;;;;;7339894;32;20166;-65
2022/06/25 13:37:07;;;;;;;4.12;1.15;;;24.40;99.90;;;;;;7348730;32;20111;-62
2022/06/25 13:41:09;;;;;;;2.33;1.10;;;24.20;99.90;;;;;;7348128;32;20107;-63
2022/06/25 13:45:11;;;;;;;3.35;1.23;;;24.10;99.90;;;;;;7339021;32;20600;-65
2022/06/25 13:49:13;;;;;;;1.87;1.05;;;24.20;99.90;;;;;;7345513;32;20134;-62
2022/06/25 13:53:15;;;;;;;5.93;1.30;;;24.20;99.90;;;;;;7339860;32;20251;-61
2022/06/25 13:57:16;;;;;;;5.03;1.20;;;24.20;99.90;;;;;;7347619;32;20242;-62
2022/06/25 14:01:18;;;;;;;3.80;1.00;;;24.10;99.90;;;;;;7348488;32;20130;-60
2022/06/25 14:05:20;;;;;;;4.43;1.05;;;24.20;99.90;;;;;;7333936;32;20135;-63
2022/06/25 14:09:22;;;;;;;1.90;1.08;;;24.40;99.90;;;;;;7350822;32;20852;-59
2022/06/25 14:13:24;;;;;;;3.50;1.00;;;24.80;99.90;;;;;;7350235;32;20103;-66
2022/06/25 14:17:26;;;;;;;2.03;0.80;;;25.20;99.90;;;;;;7346017;32;20111;-60
2022/06/25 14:21:28;;;;;;;3.25;1.20;;;25.40;99.90;;;;;;7340857;32;20111;-60
2022/06/25 14:25:32;;;;;;;2.47;1.10;;;25.60;99.90;;;;;;7346514;32;20209;-60
2022/06/25 14:29:34;;;;;;;4.35;1.10;;;25.30;99.90;;;;;;7340714;32;20134;-57
2022/06/25 14:33:37;;;;;;;5.50;1.00;;;25.10;99.90;;;;;;7346020;32;20211;-59
2022/06/25 14:46:19;;;;;;;2.30;1.02;;;24.80;99.90;;;;;;7338130;32;20149;-60
2022/06/25 14:50:22;;;;;;;5.65;1.30;;;25.20;99.90;;;;;;7333053;32;20234;-59
2022/06/25 14:54:23;;;;;;;5.87;1.52;;;25.60;99.90;;;;;;7330008;32;20164;-59
2022/06/25 14:58:26;;;;;;;2.80;1.25;;;25.90;99.90;;;;;;7344738;32;20107;-63
2022/06/25 15:02:28;;;;;;;4.25;1.35;;;25.80;99.90;;;;;;7341954;32;20115;-63
2022/06/25 15:06:30;;;;;;;3.60;1.20;;;25.50;99.90;;;;;;7342369;32;20239;-60
2022/06/25 15:10:31;;;;;;;3.67;1.67;;;25.50;99.90;;;;;;7339025;32;20288;-60
2022/06/25 15:14:33;;;;;;;4.87;1.15;;;25.50;99.90;;;;;;7341858;32;20532;-61
2022/06/25 15:18:36;;;;;;;6.18;1.17;;;25.30;99.90;;;;;;7339335;32;20288;-66
2022/06/25 15:22:37;;;;;;;5.93;1.58;;;25.40;99.90;;;;;;7345663;32;20183;-62
2022/06/25 15:26:39;;;;;;;4.78;1.17;;;25.40;99.90;;;;;;7340628;32;20242;-66
2022/06/25 15:30:41;;;;;;;3.90;1.23;;;25.30;99.90;;;;;;7338082;32;20157;-61
2022/06/25 15:34:44;;;;;;;2.58;1.02;;;25.10;99.90;;;;;;7342829;32;20253;-63
2022/06/25 15:38:45;;;;;;;3.85;1.02;;;25.00;99.90;;;;;;7344686;32;20564;-63
2022/06/25 15:42:47;;;;;;;6.22;1.40;;;25.00;99.90;;;;;;7346571;32;20153;-63
2022/06/25 15:46:49;;;;;;;5.72;1.10;;;25.00;99.90;;;;;;7345070;32;20119;-67
2022/06/25 15:50:51;;;;;;;3.80;1.10;;;24.90;99.90;;;;;;7340911;32;20218;-64
2022/06/25 15:54:53;;;;;;;2.55;1.08;;;24.80;99.90;;;;;;7340349;32;20119;-65
2022/06/25 16:03:15;;;;;;;2.37;1.05;;;24.70;99.90;;;;;;7339254;32;20214;-64
2022/06/25 16:07:17;;;;;;;2.97;1.08;;;24.70;99.90;;;;;;7341970;32;20795;-64
2022/06/25 16:11:37;;;;;;;2.62;0.95;;;24.80;99.90;;;;;;7341193;32;20103;-61
2022/06/25 16:15:39;;;;;;;4.32;1.20;;;24.80;99.90;;;;;;7332682;32;20111;-61
2022/06/25 16:19:41;;;;;;;3.75;0.95;;;24.70;99.90;;;;;;7343667;32;20577;-63
2022/06/25 16:23:43;;;;;;;2.80;1.08;;;24.70;99.90;;;;;;7343264;32;20764;-62
2022/06/25 16:27:45;;;;;;;3.30;1.00;;;24.70;99.90;;;;;;7343238;32;20115;-61
2022/06/25 16:31:48;;;;;;;2.97;1.10;;;24.60;99.90;;;;;;7340889;32;20740;-67
2022/06/25 16:35:50;;;;;;;2.60;0.85;;;24.50;99.90;;;;;;7343638;32;20103;-62
2022/06/25 16:39:52;;;;;;;3.00;0.90;;;24.50;99.90;;;;;;7342593;32;20373;-69
2022/06/25 16:44:00;;;;;;;4.53;1.10;;;24.40;99.90;;;;;;7343097;32;20491;-62
2022/06/25 16:48:02;;;;;;;3.17;1.12;;;24.30;99.90;;;;;;7344898;32;20198;-63
2022/06/25 16:52:04;;;;;;;2.75;1.10;;;24.30;99.90;;;;;;7346259;32;20157;-65
2022/06/25 16:56:06;;;;;;;4.75;1.23;;;24.40;99.90;;;;;;7345766;32;20166;-63
2022/06/25 17:00:10;;;;;;;2.25;1.08;;;24.40;99.90;;;;;;7346344;32;20130;-62
2022/06/25 17:04:12;;;;;;;4.05;1.83;;;24.30;99.90;;;;;;7346694;32;20190;-61
2022/06/25 17:08:14;;;;;;;6.22;1.50;;;24.20;99.90;;;;;;7341231;32;20203;-64
2022/06/25 17:12:33;;;;;;;3.65;1.10;;;24.20;99.90;;;;;;7350824;32;20110;-61
2022/06/25 17:16:36;;;;;;;2.92;0.90;;;24.10;99.90;;;;;;7339848;32;20104;-60
2022/06/25 17:20:39;;;;;;;2.17;1.08;;;24.00;99.90;;;;;;7349055;32;20107;-60
2022/06/25 17:24:41;;;;;;;2.70;1.15;;;24.00;99.90;;;;;;7342609;32;20121;-64
2022/06/25 17:28:43;;;;;;;3.97;0.90;;;23.80;99.90;;;;;;7343748;32;20378;-61
2022/06/25 17:32:45;;;;;;;4.95;1.00;;;23.80;99.90;;;;;;7339060;32;20703;-63
2022/06/25 17:36:47;;;;;;;2.08;1.00;;;23.70;99.90;;;;;;7346712;32;20125;-61
2022/06/25 17:40:48;;;;;;;2.28;1.10;;;23.60;99.90;;;;;;7341304;32;20214;-68
2022/06/25 17:44:52;;;;;;;3.72;1.27;;;23.50;99.90;;;;;;7342107;32;20135;-68
2022/06/25 17:48:54;;;;;;;3.65;1.15;;;23.40;99.90;;;;;;7349733;32;20674;-69
2022/06/25 17:52:56;;;;;;;4.50;1.20;;;23.30;99.90;;;;;;7342494;32;20108;-74
2022/06/25 17:56:58;;;;;;;7.45;1.55;;;23.10;99.90;;;;;;7342853;32;20114;-69
2022/06/25 18:00:59;;;;;;;6.22;1.58;;;23.00;99.90;;;;;;7344028;32;20215;-64
2022/06/25 18:05:01;;;;;;;7.45;1.70;;;22.90;99.90;;;;;;7341536;32;20130;-61
2022/06/25 18:09:03;;;;;;;5.28;1.20;;;22.80;99.90;;;;;;7345737;32;20795;-68
2022/06/25 18:13:04;;;;;;;6.28;1.12;;;22.80;99.90;;;;;;7350196;32;20228;-66
2022/06/25 18:17:06;;;;;;;3.97;1.00;;;22.80;99.90;;;;;;7340930;32;20127;-66
2022/06/25 18:21:08;;;;;;;6.28;1.12;;;22.60;99.90;;;;;;7347643;32;20137;-70
2022/06/25 18:25:10;;;;;;;6.00;1.50;;;22.40;99.90;;;;;;7345834;32;20238;-70
2022/06/25 18:29:12;;;;;;;3.65;1.35;;;22.40;99.90;;;;;;7345644;32;20153;-69
2022/06/25 18:33:13;;;;;;;2.03;1.20;;;22.20;99.90;;;;;;7349471;32;20146;-69
2022/06/25 18:37:15;;;;;;;2.42;1.50;;;22.20;99.90;;;;;;7340592;32;20234;-68
2022/06/25 18:41:17;;;;;;;6.57;1.40;;;22.00;99.90;;;;;;7346366;32;20465;-67
2022/06/25 18:45:26;;;;;;;4.07;1.90;;;21.90;99.90;;;;;;7341738;32;20205;-66
2022/06/25 18:49:27;;;;;;;3.80;1.37;;;21.80;99.90;;;;;;7338095;32;20880;-70
2022/06/25 18:53:29;;;;;;;2.72;1.10;;;21.60;99.90;;;;;;7345027;32;20107;-71
2022/06/25 18:57:31;;;;;;;4.18;1.40;;;21.50;99.90;;;;;;7343216;32;20731;-69
2022/06/25 19:01:33;;;;;;;2.92;1.70;;;21.50;99.90;;;;;;7345091;32;20111;-70
2022/06/25 19:05:35;;;;;;;5.62;1.30;;;21.40;99.90;;;;;;7341953;32;20153;-68
2022/06/25 19:09:37;;;;;;;5.45;1.50;;;21.30;99.90;;;;;;7348012;32;20111;-72
2022/06/25 19:13:39;;;;;;;1.83;1.35;;;21.10;99.90;;;;;;7345628;32;20116;-69
2022/06/25 19:17:41;;;;;;;4.95;1.20;;;21.00;99.90;;;;;;7339487;32;20207;-69
2022/06/25 19:21:43;;;;;;;4.10;1.52;;;20.90;99.90;;;;;;7343053;32;20225;-70
2022/06/25 19:25:45;;;;;;;2.85;1.42;;;20.80;99.90;;;;;;7338890;32;20207;-70
2022/06/25 19:29:47;;;;;;;4.65;1.73;;;20.70;99.90;;;;;;7354635;32;20115;-69
2022/06/25 19:33:48;;;;;;;6.05;1.83;;;20.60;99.90;;;;;;7343731;32;20197;-68
2022/06/25 19:37:50;;;;;;;5.30;1.35;;;20.50;99.90;;;;;;7343213;32;20122;-68
2022/06/25 19:41:52;;;;;;;8.75;2.10;;;20.40;99.90;;;;;;7343547;32;20226;-69
2022/06/25 19:45:54;;;;;;;3.92;1.70;;;20.30;99.90;;;;;;7347691;32;20115;-69
2022/06/25 19:49:56;;;;;;;3.85;2.00;;;20.20;99.90;;;;;;7341964;32;20198;-68
2022/06/25 19:53:58;;;;;;;8.25;1.95;;;20.10;99.90;;;;;;7336509;32;20127;-69
2022/06/25 19:57:59;;;;;;;4.35;1.80;;;20.00;99.90;;;;;;7345321;32;20133;-68
2022/06/25 20:02:01;;;;;;;5.07;1.90;;;19.90;99.90;;;;;;7342801;32;20173;-69
2022/06/25 20:06:03;;;;;;;4.80;1.77;;;19.80;99.90;;;;;;7342925;32;20268;-65
2022/06/25 20:10:05;;;;;;;3.78;1.90;;;19.70;99.90;;;;;;7341279;32;20212;-65
2022/06/25 20:14:07;;;;;;;7.50;2.47;;;19.70;99.90;;;;;;7346976;32;20110;-64
2022/06/25 20:18:10;;;;;;;4.93;2.15;;;19.60;99.90;;;;;;7339682;32;20452;-64
2022/06/25 20:22:11;;;;;;;9.38;2.60;;;19.50;99.90;;;;;;7345539;32;20102;-64
2022/06/25 20:26:13;;;;;;;4.35;2.10;;;19.40;99.90;;;;;;7347072;32;20345;-62
2022/06/25 20:30:15;;;;;;;4.40;2.30;;;19.30;99.90;;;;;;7340332;32;20111;-62
2022/06/25 20:34:16;;;;;;;4.10;2.20;;;19.20;99.90;;;;;;7341284;32;21824;-63
2022/06/25 20:38:18;;;;;;;4.55;2.33;;;19.10;99.90;;;;;;7341760;32;20133;-62
2022/06/25 20:42:20;;;;;;;8.45;2.30;;;19.10;99.90;;;;;;7342033;32;20142;-64
2022/06/25 20:46:21;;;;;;;3.95;2.20;;;19.00;99.90;;;;;;7338951;32;20161;-63
2022/06/25 20:50:23;;;;;;;4.45;2.28;;;18.90;99.90;;;;;;7337316;32;20545;-65
2022/06/25 20:54:25;;;;;;;10.05;2.50;;;18.90;99.90;;;;;;7338602;32;20161;-63
2022/06/25 20:58:27;;;;;;;5.20;2.53;;;18.80;99.90;;;;;;7339306;32;20513;-64
2022/06/25 21:02:29;;;;;;;4.47;2.08;;;18.80;99.90;;;;;;7345400;32;20214;-63
2022/06/25 21:10:51;;;;;;;4.97;2.55;;;18.70;99.90;;;;;;7340118;32;20136;-61
2022/06/25 21:14:52;;;;;;;6.25;2.78;;;18.60;99.90;;;;;;7347112;32;20585;-63
2022/06/25 21:18:54;;;;;;;4.80;2.33;;;18.50;99.90;;;;;;7343919;32;20221;-62
2022/06/25 21:22:56;;;;;;;5.15;2.70;;;18.40;99.90;;;;;;7341997;32;20555;-61
2022/06/25 21:27:01;;;;;;;3.95;2.87;;;18.40;99.90;;;;;;7339967;32;20107;-60
2022/06/25 21:31:03;;;;;;;5.45;2.83;;;18.20;99.90;;;;;;7347861;32;20573;-62
2022/06/25 21:35:05;;;;;;;6.20;2.70;;;18.20;99.90;;;;;;7352158;32;20315;-60
2022/06/25 21:39:06;;;;;;;6.05;2.80;;;18.10;99.90;;;;;;7329283;32;21132;-61
2022/06/25 21:43:08;;;;;;;5.35;2.70;;;18.10;99.90;;;;;;7344710;32;20212;-63
2022/06/25 21:47:10;;;;;;;4.22;2.70;;;18.10;99.90;;;;;;7349554;32;20238;-61